Time;durP1;ratioP1;P1;durP2;ratioP2;P2;SDS_P1;SDS_P2;PMS_P1;PMS_P2;Temp;Humidity;BMP_temperature;BMP_pressure;BME280_temperature;BME280_humidity;BME280_pressure;Samples;Min_cycle;Max_cycle;Signal;HPM_P1;HPM_P2
2022/03/10 00:00:20;;;;;;;0.50;0.50;;;;;;;6.18;45.92;102401.78;673719;29;46129;-68
2022/03/10 00:00:41;;;;;;;0.43;0.43;;;;;;;6.19;45.98;102406.19;674453;29;46356;-68
2022/03/10 00:01:03;;;;;;;0.40;0.40;;;;;;;6.18;45.95;102406.28;674117;29;44419;-68
2022/03/10 00:01:24;;;;;;;0.50;0.50;;;;;;;6.18;45.82;102398.25;672437;29;45507;-68
2022/03/10 00:01:45;;;;;;;0.60;0.60;;;;;;;6.17;45.88;102401.88;674880;29;22396;-68
2022/03/10 00:02:07;;;;;;;0.50;0.50;;;;;;;6.16;45.88;102397.47;675049;29;21479;-68
2022/03/10 00:02:29;;;;;;;0.50;0.50;;;;;;;6.14;45.82;102413.69;674247;29;46354;-68
2022/03/10 00:02:50;;;;;;;0.40;0.40;;;;;;;6.12;45.97;102407.56;674202;29;46380;-68
2022/03/10 00:03:11;;;;;;;0.50;0.50;;;;;;;6.11;46.08;102404.03;675064;29;22409;-68
2022/03/10 00:03:33;;;;;;;0.60;0.60;;;;;;;6.09;46.02;102405.94;675407;29;20906;-68
2022/03/10 00:03:55;;;;;;;0.50;0.50;;;;;;;6.08;46.13;102408.75;674445;29;46317;-68
2022/03/10 00:04:16;;;;;;;0.50;0.50;;;;;;;6.08;45.99;102408.75;673894;29;46385;-68
2022/03/10 00:04:38;;;;;;;0.40;0.40;;;;;;;6.06;46.21;102408.84;675252;29;22428;-68
2022/03/10 00:04:59;;;;;;;0.40;0.40;;;;;;;6.05;46.29;102408.94;674870;29;22471;-68
2022/03/10 00:05:22;;;;;;;0.50;0.50;;;;;;;6.05;46.23;102404.47;673964;29;45288;-68
2022/03/10 00:05:43;;;;;;;0.50;0.50;;;;;;;6.06;46.16;102408.84;673328;29;68398;-68
2022/03/10 00:06:04;;;;;;;0.50;0.50;;;;;;;6.05;46.25;102407.16;675139;29;22296;-68
2022/03/10 00:06:25;;;;;;;0.50;0.50;;;;;;;6.05;46.30;102407.16;671555;29;21289;-68
2022/03/10 00:06:47;;;;;;;0.40;0.40;;;;;;;6.05;46.44;102412.50;672662;29;19007;-68
2022/03/10 00:07:08;;;;;;;0.50;0.50;;;;;;;6.05;46.45;102403.59;671527;29;44328;-68
2022/03/10 00:07:29;;;;;;;0.60;0.60;;;;;;;6.05;46.38;102409.81;670419;29;22413;-68
2022/03/10 00:07:51;;;;;;;0.50;0.50;;;;;;;6.05;46.34;102411.63;669905;29;21565;-68
2022/03/10 00:08:13;;;;;;;0.40;0.40;;;;;;;6.03;46.32;102413.56;669733;29;46335;-68
2022/03/10 00:08:34;;;;;;;0.40;0.40;;;;;;;6.03;46.43;102406.38;672534;29;21301;-68
2022/03/10 00:08:55;;;;;;;0.40;0.40;;;;;;;6.02;46.55;102412.72;672760;29;23422;-68
2022/03/10 00:09:17;;;;;;;0.50;0.50;;;;;;;6.01;46.58;102408.31;672640;29;21554;-68
2022/03/10 00:09:38;;;;;;;0.60;0.60;;;;;;;6.02;46.54;102417.22;674408;29;46333;-68
2022/03/10 00:09:59;;;;;;;0.50;0.50;;;;;;;6.02;46.69;102411.84;674599;29;44613;-68
2022/03/10 00:10:21;;;;;;;0.50;0.50;;;;;;;6.02;46.46;102414.53;672382;29;22215;-68
2022/03/10 00:10:42;;;;;;;0.47;0.47;;;;;;;6.03;46.64;102416.25;671349;29;45355;-68
2022/03/10 00:11:03;;;;;;;0.40;0.40;;;;;;;6.03;46.50;102421.63;672159;29;22490;-68
2022/03/10 00:11:25;;;;;;;0.52;0.52;;;;;;;6.04;46.67;102423.34;671847;29;22127;-68
2022/03/10 00:11:48;;;;;;;0.60;0.60;;;;;;;6.03;46.57;102422.47;670862;29;46914;-68
2022/03/10 00:12:10;;;;;;;0.50;0.50;;;;;;;6.04;46.53;102421.50;672489;29;45240;-68
2022/03/10 00:12:31;;;;;;;0.50;0.50;;;;;;;6.05;46.46;102422.34;674262;29;45237;-68
2022/03/10 00:12:53;;;;;;;0.47;0.47;;;;;;;6.06;46.52;102421.41;674615;29;36284;-68
2022/03/10 00:13:14;;;;;;;0.40;0.40;;;;;;;6.05;46.39;102425.91;674415;29;40105;-68
2022/03/10 00:13:36;;;;;;;0.60;0.60;;;;;;;6.02;46.52;102420.78;675313;29;24422;-68
2022/03/10 00:13:57;;;;;;;0.52;0.52;;;;;;;6.01;46.37;102428.91;674683;29;45260;-68
2022/03/10 00:14:18;;;;;;;0.50;0.50;;;;;;;5.99;46.41;102422.78;674777;29;24363;-68
2022/03/10 00:14:39;;;;;;;0.50;0.50;;;;;;;5.99;46.65;102430.81;674968;29;21551;-68
2022/03/10 00:15:03;;;;;;;0.50;0.50;;;;;;;5.97;46.55;102425.56;674831;29;23429;-68
2022/03/10 00:15:24;;;;;;;0.40;0.40;;;;;;;5.97;46.59;102422.88;673495;29;69932;-68
2022/03/10 00:15:45;;;;;;;0.60;0.60;;;;;;;5.95;46.38;102422.97;675491;29;22203;-68
2022/03/10 00:16:06;;;;;;;0.52;0.52;;;;;;;5.97;46.77;102422.03;675201;29;21628;-68
2022/03/10 00:16:31;;;;;;;0.50;0.50;;;;;;;5.97;46.49;102422.03;675361;29;4340;-68
2022/03/10 00:16:52;;;;;;;0.50;0.50;;;;;;;5.97;46.65;102425.56;666789;29;115565;-68
2022/03/10 00:17:13;;;;;;;0.40;0.40;;;;;;;5.97;46.52;102433.63;670076;29;22396;-68
2022/03/10 00:17:35;;;;;;;0.47;0.47;;;;;;;5.97;46.40;102420.22;669911;29;21102;-68
2022/03/10 00:17:57;;;;;;;0.60;0.60;;;;;;;5.95;46.47;102425.63;669945;29;22295;-68
2022/03/10 00:18:18;;;;;;;0.60;0.60;;;;;;;5.94;46.47;102432.00;669629;29;47403;-68
2022/03/10 00:18:39;;;;;;;0.50;0.50;;;;;;;5.92;46.43;102431.25;670996;29;22412;-68
2022/03/10 00:19:00;;;;;;;0.50;0.50;;;;;;;5.93;46.46;102424.03;675386;29;23829;-68
2022/03/10 00:19:21;;;;;;;0.50;0.50;;;;;;;5.91;46.67;102426.00;676156;29;1628;-68
2022/03/10 00:19:44;;;;;;;0.50;0.50;;;;;;;5.90;46.58;102425.09;675181;29;970;-68
2022/03/10 00:20:09;;;;;;;0.60;0.60;;;;;;;5.90;46.52;102424.25;674673;29;37993;-68
2022/03/10 00:20:31;;;;;;;0.50;0.50;;;;;;;5.90;46.70;102426.94;673870;29;46263;-68
2022/03/10 00:20:53;;;;;;;0.50;0.50;;;;;;;5.89;46.56;102425.22;673446;29;69463;-68
2022/03/10 00:21:14;;;;;;;0.50;0.50;;;;;;;5.89;46.62;102427.91;674277;29;45714;-68
2022/03/10 00:21:35;;;;;;;0.40;0.40;;;;;;;5.90;46.61;102434.97;674150;29;22416;-68
2022/03/10 00:21:57;;;;;;;0.50;0.50;;;;;;;5.90;46.75;102421.56;675220;29;21643;-68
2022/03/10 00:22:19;;;;;;;0.60;0.60;;;;;;;5.89;46.56;102426.09;675020;29;22399;-68
2022/03/10 00:22:44;;;;;;;0.60;0.60;;;;;;;5.91;46.61;102428.66;674109;29;46393;-68
2022/03/10 00:23:05;;;;;;;0.50;0.50;;;;;;;5.92;46.52;102428.56;672182;29;115208;-68
2022/03/10 00:23:29;;;;;;;0.50;0.50;;;;;;;5.92;46.46;102425.88;675535;29;1550;-68
2022/03/10 00:23:50;;;;;;;0.40;0.40;;;;;;;5.92;46.49;102427.69;673998;29;44462;-68
2022/03/10 00:24:12;;;;;;;0.60;0.60;;;;;;;5.88;46.37;102429.72;675169;29;22437;-68
2022/03/10 00:24:33;;;;;;;0.60;0.60;;;;;;;5.88;46.46;102428.88;674293;29;46395;-68
2022/03/10 00:24:54;;;;;;;0.50;0.50;;;;;;;5.88;46.57;102427.03;675211;29;22498;-68
2022/03/10 00:25:16;;;;;;;0.50;0.50;;;;;;;5.88;46.53;102427.03;674858;29;21566;-68
2022/03/10 00:25:37;;;;;;;0.40;0.40;;;;;;;5.85;46.62;102429.09;673301;29;69457;-68
2022/03/10 00:25:58;;;;;;;0.40;0.40;;;;;;;5.83;46.58;102423.81;675088;29;23570;-68
2022/03/10 00:26:20;;;;;;;0.50;0.50;;;;;;;5.82;46.65;102429.28;674415;29;23224;-68
2022/03/10 00:26:42;;;;;;;0.60;0.60;;;;;;;5.83;46.87;102431.88;675314;29;23957;-68
2022/03/10 00:27:03;;;;;;;0.50;0.50;;;;;;;5.83;46.76;102428.31;674293;29;45268;-68
2022/03/10 00:27:26;;;;;;;0.50;0.50;;;;;;;5.84;46.64;102433.56;671402;29;23464;-68
2022/03/10 00:27:47;;;;;;;0.43;0.43;;;;;;;5.85;46.69;102435.31;670696;29;69347;-68
2022/03/10 00:28:09;;;;;;;0.47;0.47;;;;;;;5.85;46.68;102434.44;671622;29;44480;-68
2022/03/10 00:28:31;;;;;;;0.60;0.60;;;;;;;5.84;46.91;102430.88;672067;29;22461;-68
2022/03/10 00:28:52;;;;;;;0.60;0.60;;;;;;;5.86;46.64;102430.78;671417;29;44472;-68
2022/03/10 00:29:13;;;;;;;0.60;0.60;;;;;;;5.85;46.64;102429.94;673049;29;22436;-68
2022/03/10 00:29:35;;;;;;;0.50;0.50;;;;;;;5.86;46.53;102433.47;675325;29;988;-68
2022/03/10 00:29:56;;;;;;;0.50;0.50;;;;;;;5.85;46.60;102437.97;674239;29;46342;-68
2022/03/10 00:30:17;;;;;;;0.45;0.45;;;;;;;5.84;46.47;102430.88;675150;29;21551;-67
2022/03/10 00:30:38;;;;;;;0.60;0.60;;;;;;;5.84;46.69;102432.72;675251;29;22351;-67
2022/03/10 00:31:00;;;;;;;0.60;0.60;;;;;;;5.82;46.73;102438.19;674391;29;46217;-67
2022/03/10 00:31:21;;;;;;;0.50;0.50;;;;;;;5.83;46.68;102433.66;672310;29;70722;-68
2022/03/10 00:31:43;;;;;;;0.50;0.50;;;;;;;5.81;46.68;102439.13;674460;29;23474;-67
2022/03/10 00:32:05;;;;;;;0.40;0.40;;;;;;;5.79;46.63;102435.72;674679;29;21551;-67
2022/03/10 00:32:26;;;;;;;0.40;0.40;;;;;;;5.79;46.71;102435.72;674116;29;46334;-67
2022/03/10 00:32:51;;;;;;;0.60;0.60;;;;;;;5.76;46.75;102428.72;674533;29;46424;-67
2022/03/10 00:33:12;;;;;;;0.60;0.60;;;;;;;5.75;46.91;102437.75;672768;29;93342;-67
2022/03/10 00:33:34;;;;;;;0.50;0.50;;;;;;;5.76;46.82;102442.13;675178;29;23488;-67
2022/03/10 00:33:55;;;;;;;0.50;0.50;;;;;;;5.75;47.04;102440.44;674407;29;46407;-67
2022/03/10 00:34:16;;;;;;;0.40;0.40;;;;;;;5.73;47.20;102436.97;674990;29;22193;-67
2022/03/10 00:34:37;;;;;;;0.60;0.60;;;;;;;5.73;47.22;102433.44;675137;29;20852;-67
2022/03/10 00:34:58;;;;;;;0.60;0.60;;;;;;;5.75;47.32;102439.56;674888;29;22423;-67
2022/03/10 00:35:22;;;;;;;0.60;0.60;;;;;;;5.75;47.34;102440.44;674378;29;46256;-67
2022/03/10 00:35:45;;;;;;;0.50;0.50;;;;;;;5.77;47.35;102434.97;672087;29;115338;-67
2022/03/10 00:36:07;;;;;;;0.50;0.50;;;;;;;5.78;47.12;102440.22;674194;29;45442;-67
2022/03/10 00:36:28;;;;;;;0.40;0.40;;;;;;;5.79;47.08;102441.06;673676;29;44393;-67
2022/03/10 00:36:50;;;;;;;0.50;0.50;;;;;;;5.78;47.25;102434.88;674832;29;22410;-67
2022/03/10 00:37:11;;;;;;;0.60;0.60;;;;;;;5.81;47.30;102440.97;675568;29;1665;-67
2022/03/10 00:37:32;;;;;;;0.50;0.50;;;;;;;5.82;47.29;102431.97;675237;29;22615;-67
2022/03/10 00:37:53;;;;;;;0.50;0.50;;;;;;;5.82;47.19;102438.19;675185;29;22446;-67
2022/03/10 00:38:16;;;;;;;0.40;0.40;;;;;;;5.83;47.10;102431.88;674083;29;45452;-67
2022/03/10 00:38:37;;;;;;;0.40;0.40;;;;;;;5.85;47.15;102439.81;674142;29;46424;-67
2022/03/10 00:38:58;;;;;;;0.50;0.50;;;;;;;5.86;47.07;102441.50;674803;29;22495;-67
2022/03/10 00:39:19;;;;;;;0.60;0.60;;;;;;;5.87;47.14;102441.41;675084;29;22902;-67
2022/03/10 00:39:40;;;;;;;0.60;0.60;;;;;;;5.87;47.08;102444.09;673883;29;22397;-67
2022/03/10 00:40:03;;;;;;;0.50;0.50;;;;;;;5.88;47.10;102443.13;674601;29;23466;-67
2022/03/10 00:40:25;;;;;;;0.50;0.50;;;;;;;5.90;46.96;102437.66;673290;29;69491;-67
2022/03/10 00:40:46;;;;;;;0.40;0.40;;;;;;;5.91;47.15;102434.88;673717;29;46353;-67
2022/03/10 00:41:09;;;;;;;0.50;0.50;;;;;;;5.95;46.92;102444.41;674555;29;21553;-67
2022/03/10 00:41:30;;;;;;;0.52;0.52;;;;;;;5.94;46.89;102445.41;671456;29;70422;-67
2022/03/10 00:41:51;;;;;;;0.50;0.50;;;;;;;5.94;46.83;102440.03;669036;29;21106;-67
2022/03/10 00:42:12;;;;;;;0.50;0.50;;;;;;;5.96;46.89;102442.63;669815;29;23467;-67
2022/03/10 00:42:37;;;;;;;0.40;0.40;;;;;;;5.95;46.86;102430.16;669506;29;24510;-67
2022/03/10 00:43:00;;;;;;;0.40;0.40;;;;;;;5.97;46.82;102438.13;667332;29;116153;-67
2022/03/10 00:43:21;;;;;;;0.50;0.50;;;;;;;5.97;46.90;102441.66;670777;29;69443;-67
2022/03/10 00:43:42;;;;;;;0.50;0.50;;;;;;;5.96;46.98;102434.56;673460;29;22360;-67
2022/03/10 00:44:04;;;;;;;0.60;0.60;;;;;;;5.97;46.97;102447.03;672291;29;22371;-67
2022/03/10 00:44:29;;;;;;;0.50;0.50;;;;;;;5.99;46.80;102433.50;673128;29;69584;-67
2022/03/10 00:44:50;;;;;;;0.50;0.50;;;;;;;5.98;46.72;102435.34;672034;29;115497;-66
2022/03/10 00:45:13;;;;;;;0.50;0.50;;;;;;;6.01;46.84;102445.00;672868;29;22096;-67
2022/03/10 00:45:34;;;;;;;0.63;0.63;;;;;;;6.01;46.91;102437.81;670924;29;69519;-67
2022/03/10 00:45:56;;;;;;;0.60;0.60;;;;;;;6.03;46.88;102440.41;671923;29;21553;-67
2022/03/10 00:46:21;;;;;;;0.60;0.60;;;;;;;6.03;46.93;102440.41;671408;29;67390;-67
2022/03/10 00:46:42;;;;;;;0.50;0.50;;;;;;;6.03;46.94;102437.72;671087;29;47622;-67
2022/03/10 00:47:05;;;;;;;0.50;0.50;;;;;;;6.03;46.76;102440.41;673817;29;12167;-67
2022/03/10 00:47:26;;;;;;;0.50;0.50;;;;;;;6.03;46.74;102435.88;673518;29;69304;-67
2022/03/10 00:47:48;;;;;;;0.60;0.60;;;;;;;6.06;46.88;102442.88;675088;29;23481;-67
2022/03/10 00:48:09;;;;;;;0.60;0.60;;;;;;;6.07;46.83;102441.91;674496;29;45277;-67
2022/03/10 00:48:31;;;;;;;0.50;0.50;;;;;;;6.08;46.74;102446.28;675534;29;20927;-67
2022/03/10 00:48:52;;;;;;;0.50;0.50;;;;;;;6.09;46.78;102438.13;674640;29;22408;-67
2022/03/10 00:49:14;;;;;;;0.40;0.40;;;;;;;6.09;46.71;102443.50;675152;29;23480;-67
2022/03/10 00:49:35;;;;;;;0.50;0.50;;;;;;;6.10;46.70;102444.38;673726;29;46315;-67
2022/03/10 00:49:56;;;;;;;0.60;0.60;;;;;;;6.10;46.73;102445.22;674989;29;23467;-67
2022/03/10 00:50:17;;;;;;;0.60;0.60;;;;;;;6.11;46.79;102440.72;674953;29;22400;-67
2022/03/10 00:50:39;;;;;;;0.57;0.57;;;;;;;6.12;46.69;102437.94;674267;29;46309;-67
2022/03/10 00:51:02;;;;;;;0.50;0.50;;;;;;;6.15;46.81;102446.75;674373;29;44188;-67
2022/03/10 00:51:23;;;;;;;0.40;0.40;;;;;;;6.16;46.78;102443.09;673169;29;46502;-67
2022/03/10 00:51:45;;;;;;;0.50;0.50;;;;;;;6.17;46.74;102444.81;674650;29;21685;-67
2022/03/10 00:52:06;;;;;;;0.70;0.70;;;;;;;6.18;46.73;102443.84;674381;29;44367;-67
2022/03/10 00:52:28;;;;;;;0.60;0.60;;;;;;;6.19;46.72;102441.06;675244;29;22410;-67
2022/03/10 00:52:49;;;;;;;0.60;0.60;;;;;;;6.22;46.72;102445.34;673702;29;69572;-68
2022/03/10 00:53:10;;;;;;;0.50;0.50;;;;;;;6.21;46.55;102440.97;673092;29;21561;-68
2022/03/10 00:53:32;;;;;;;0.45;0.45;;;;;;;6.22;46.46;102448.03;672770;29;22403;-68
2022/03/10 00:53:53;;;;;;;0.50;0.50;;;;;;;6.24;46.50;102443.44;671179;29;46204;-68
2022/03/10 00:54:14;;;;;;;0.60;0.60;;;;;;;6.24;46.41;102441.59;672772;29;15035;-68
2022/03/10 00:54:36;;;;;;;0.60;0.60;;;;;;;6.24;46.40;102446.13;671689;29;46349;-68
2022/03/10 00:54:57;;;;;;;0.50;0.50;;;;;;;6.24;46.32;102448.78;672198;29;23502;-68
2022/03/10 00:55:20;;;;;;;0.50;0.50;;;;;;;6.22;46.42;102438.16;672899;29;22372;-68
2022/03/10 00:55:41;;;;;;;0.40;0.40;;;;;;;6.20;46.33;102442.75;672824;29;46099;-67
2022/03/10 00:56:02;;;;;;;0.50;0.50;;;;;;;6.22;46.35;102437.28;674657;29;22203;-67
2022/03/10 00:56:24;;;;;;;0.60;0.60;;;;;;;6.20;46.46;102440.09;652281;29;46325;-67
2022/03/10 00:56:45;;;;;;;0.60;0.60;;;;;;;6.20;46.56;102447.28;671563;29;45493;-67
2022/03/10 00:57:06;;;;;;;0.50;0.50;;;;;;;6.18;46.47;102441.19;672151;29;22409;-67
2022/03/10 00:57:27;;;;;;;0.50;0.50;;;;;;;6.17;46.54;102445.66;672287;29;22416;-67
2022/03/10 00:57:50;;;;;;;0.40;0.40;;;;;;;6.17;46.50;102448.34;672390;29;23266;-67
2022/03/10 00:58:12;;;;;;;0.50;0.50;;;;;;;6.15;46.33;102444.91;670514;29;69450;-67
2022/03/10 00:58:34;;;;;;;0.60;0.60;;;;;;;6.15;46.52;102446.75;673152;29;44405;-67
2022/03/10 00:58:55;;;;;;;0.60;0.60;;;;;;;6.11;46.37;102444.28;674811;29;20889;-68
2022/03/10 00:59:16;;;;;;;0.50;0.50;;;;;;;6.10;46.48;102447.91;675048;29;22390;-68
2022/03/10 00:59:39;;;;;;;0.50;0.50;;;;;;;6.08;46.45;102447.16;674404;29;23404;-68
2022/03/10 01:00:00;;;;;;;0.40;0.40;;;;;;;6.07;46.66;102458.00;672373;29;90367;-67
2022/03/10 01:00:24;;;;;;;0.50;0.50;;;;;;;6.04;46.69;102453.69;675051;29;23470;-67
2022/03/10 01:00:46;;;;;;;0.60;0.60;;;;;;;6.03;46.68;102445.75;673377;29;69788;-67
2022/03/10 01:01:07;;;;;;;0.60;0.60;;;;;;;5.99;46.73;102453.16;674014;29;45345;-67
2022/03/10 01:01:28;;;;;;;0.50;0.50;;;;;;;5.98;46.78;102453.28;674340;29;23387;-67
2022/03/10 01:01:49;;;;;;;0.47;0.47;;;;;;;5.96;46.82;102442.63;674291;29;22467;-67
2022/03/10 01:02:10;;;;;;;0.40;0.40;;;;;;;5.94;47.00;102449.88;673886;29;44389;-67
2022/03/10 01:02:32;;;;;;;0.50;0.50;;;;;;;5.92;47.00;102451.81;674819;29;22417;-67
2022/03/10 01:02:55;;;;;;;0.60;0.60;;;;;;;5.91;47.06;102455.50;674068;29;45098;-67
2022/03/10 01:03:17;;;;;;;0.60;0.60;;;;;;;5.89;46.97;102452.91;673149;29;69447;-67
2022/03/10 01:03:39;;;;;;;0.50;0.50;;;;;;;5.89;47.01;102444.88;675033;29;25587;-66
2022/03/10 01:04:00;;;;;;;0.50;0.50;;;;;;;5.88;47.12;102450.34;671298;29;45042;-67
2022/03/10 01:04:21;;;;;;;0.50;0.50;;;;;;;5.88;47.18;102453.00;672210;29;23452;-67
2022/03/10 01:04:43;;;;;;;0.60;0.60;;;;;;;5.88;47.07;102444.97;671264;29;46163;-67
2022/03/10 01:05:07;;;;;;;0.60;0.60;;;;;;;5.88;47.21;102447.66;671956;29;23473;-67
2022/03/10 01:05:28;;;;;;;0.60;0.60;;;;;;;5.87;47.23;102453.97;670144;29;90383;-67
2022/03/10 01:05:49;;;;;;;0.50;0.50;;;;;;;5.86;47.19;102453.13;673130;29;21569;-67
2022/03/10 01:06:11;;;;;;;0.40;0.40;;;;;;;5.84;47.23;102452.34;675166;29;23472;-67
2022/03/10 01:06:33;;;;;;;0.47;0.47;;;;;;;5.84;47.20;102457.69;673560;29;46633;-67
2022/03/10 01:06:54;;;;;;;0.60;0.60;;;;;;;5.83;47.15;102449.75;673618;29;69446;-67
2022/03/10 01:07:16;;;;;;;0.60;0.60;;;;;;;5.83;47.24;102461.38;675116;29;23443;-67
2022/03/10 01:07:37;;;;;;;0.50;0.50;;;;;;;5.81;47.37;102455.22;675137;29;22910;-67
2022/03/10 01:07:59;;;;;;;0.50;0.50;;;;;;;5.81;47.42;102449.00;675240;29;22364;-67
2022/03/10 01:08:20;;;;;;;0.40;0.40;;;;;;;5.80;47.43;102458.88;674329;29;45466;-67
2022/03/10 01:08:42;;;;;;;0.40;0.40;;;;;;;5.80;47.17;102452.66;674879;29;22258;-67
2022/03/10 01:09:03;;;;;;;0.50;0.50;;;;;;;5.79;47.45;102457.16;675517;29;1010;-67
2022/03/10 01:09:26;;;;;;;0.50;0.50;;;;;;;5.78;47.46;102463.47;672051;29;23651;-67
2022/03/10 01:09:47;;;;;;;0.50;0.50;;;;;;;5.74;47.52;102453.94;669846;29;70304;-67
2022/03/10 01:10:09;;;;;;;0.50;0.50;;;;;;;5.73;47.52;102461.09;672007;29;22387;-67
2022/03/10 01:10:35;;;;;;;0.40;0.40;;;;;;;5.72;47.60;102461.22;667768;29;137983;-67
2022/03/10 01:10:56;;;;;;;0.50;0.50;;;;;;;5.74;47.59;102461.97;671059;29;44767;-67
2022/03/10 01:11:17;;;;;;;0.68;0.68;;;;;;;5.72;47.48;102464.78;673368;29;22386;-67
2022/03/10 01:11:38;;;;;;;0.60;0.60;;;;;;;5.73;47.54;102465.63;673513;29;21529;-67
2022/03/10 01:11:59;;;;;;;0.60;0.60;;;;;;;5.71;47.58;102464.88;674837;29;22409;-67
2022/03/10 01:12:21;;;;;;;0.50;0.50;;;;;;;5.70;47.49;102463.13;674674;29;22892;-67
2022/03/10 01:12:45;;;;;;;0.43;0.43;;;;;;;5.67;47.53;102456.16;674246;29;46383;-67
2022/03/10 01:13:12;;;;;;;0.50;0.50;;;;;;;5.66;47.60;102457.13;671925;29;94003;-67
2022/03/10 01:13:33;;;;;;;0.60;0.60;;;;;;;5.64;47.71;102451.00;668132;29;139150;-67
2022/03/10 01:13:55;;;;;;;0.60;0.60;;;;;;;5.64;47.80;102460.88;672428;29;22372;-67
2022/03/10 01:14:16;;;;;;;0.50;0.50;;;;;;;5.66;47.70;102456.25;671264;29;46353;-67
2022/03/10 01:14:37;;;;;;;0.50;0.50;;;;;;;5.67;47.82;102464.19;671513;29;23313;-67
2022/03/10 01:14:58;;;;;;;0.50;0.50;;;;;;;5.64;47.84;102456.34;671610;29;23471;-67
2022/03/10 01:15:22;;;;;;;0.50;0.50;;;;;;;5.65;47.84;102462.59;672817;29;22372;-67
2022/03/10 01:15:46;;;;;;;0.60;0.60;;;;;;;5.63;47.92;102457.34;671185;29;115512;-67
2022/03/10 01:16:08;;;;;;;0.60;0.60;;;;;;;5.62;47.88;102460.13;671167;29;115228;-67
2022/03/10 01:16:29;;;;;;;0.50;0.50;;;;;;;5.62;47.95;102457.44;672765;29;45345;-67
2022/03/10 01:16:50;;;;;;;0.50;0.50;;;;;;;5.62;47.89;102462.81;674538;29;23543;-66
2022/03/10 01:17:12;;;;;;;0.40;0.40;;;;;;;5.62;47.86;102462.81;674290;29;22408;-67
2022/03/10 01:17:33;;;;;;;0.50;0.50;;;;;;;5.63;48.17;102461.81;674450;29;34094;-67
2022/03/10 01:17:55;;;;;;;0.65;0.65;;;;;;;5.62;48.10;102463.66;674805;29;24326;-67
2022/03/10 01:18:16;;;;;;;0.60;0.60;;;;;;;5.63;48.08;102462.69;674409;29;44190;-67
2022/03/10 01:18:38;;;;;;;0.57;0.57;;;;;;;5.64;47.95;102467.09;675046;29;21525;-67
2022/03/10 01:18:59;;;;;;;0.50;0.50;;;;;;;5.65;48.00;102463.44;673887;29;45286;-67
2022/03/10 01:19:20;;;;;;;0.43;0.43;;;;;;;5.65;48.08;102457.25;674729;29;23469;-67
2022/03/10 01:19:41;;;;;;;0.50;0.50;;;;;;;5.68;48.05;102470.44;673906;29;22421;-66
2022/03/10 01:20:04;;;;;;;0.60;0.60;;;;;;;5.68;47.88;102465.06;674641;29;21536;-67
2022/03/10 01:20:26;;;;;;;0.60;0.60;;;;;;;5.70;47.97;102463.13;670924;29;70051;-67
2022/03/10 01:20:47;;;;;;;0.50;0.50;;;;;;;5.72;47.79;102461.22;671670;29;44396;-67
2022/03/10 01:21:09;;;;;;;0.50;0.50;;;;;;;5.72;47.83;102466.56;672332;29;21229;-67
2022/03/10 01:21:31;;;;;;;0.50;0.50;;;;;;;5.73;47.77;102470.97;670975;29;43608;-67
2022/03/10 01:21:52;;;;;;;0.60;0.60;;;;;;;5.71;47.76;102471.09;671675;29;45298;-67
2022/03/10 01:22:14;;;;;;;0.60;0.60;;;;;;;5.72;47.74;102461.22;672570;29;24225;-67
2022/03/10 01:22:35;;;;;;;0.60;0.60;;;;;;;5.74;47.74;102470.03;669016;29;44340;-67
2022/03/10 01:22:57;;;;;;;0.50;0.50;;;;;;;5.74;47.78;102461.97;670085;29;21465;-67
2022/03/10 01:23:18;;;;;;;0.50;0.50;;;;;;;5.74;47.64;102467.34;669898;29;45201;-67
2022/03/10 01:23:40;;;;;;;0.50;0.50;;;;;;;5.73;47.75;102469.16;669752;29;23556;-67
2022/03/10 01:24:03;;;;;;;0.60;0.60;;;;;;;5.75;47.68;102469.03;668969;29;44141;-66
2022/03/10 01:24:25;;;;;;;0.70;0.70;;;;;;;5.75;47.73;102472.59;670616;29;45327;-67
2022/03/10 01:24:46;;;;;;;0.60;0.60;;;;;;;5.74;47.74;102462.84;673575;29;67988;-67
2022/03/10 01:25:08;;;;;;;0.60;0.60;;;;;;;5.74;47.68;102464.66;672279;29;17712;-67
2022/03/10 01:25:30;;;;;;;0.50;0.50;;;;;;;5.74;47.66;102475.41;670492;29;29978;-67
2022/03/10 01:25:52;;;;;;;0.50;0.50;;;;;;;5.75;47.67;102472.59;670565;29;23454;-67
2022/03/10 01:26:13;;;;;;;0.68;0.68;;;;;;;5.74;47.90;102470.03;670064;29;46349;-67
2022/03/10 01:26:34;;;;;;;0.70;0.70;;;;;;;5.74;47.67;102470.03;670112;29;21499;-67
2022/03/10 01:26:55;;;;;;;0.60;0.60;;;;;;;5.72;47.76;102467.44;670903;29;22434;-66
2022/03/10 01:27:16;;;;;;;0.60;0.60;;;;;;;5.72;47.75;102471.94;672491;29;22483;-67
2022/03/10 01:27:38;;;;;;;0.50;0.50;;;;;;;5.72;47.64;102466.56;674138;29;46289;-67
2022/03/10 01:27:59;;;;;;;0.43;0.43;;;;;;;5.71;47.67;102472.91;673955;29;46345;-67
2022/03/10 01:28:20;;;;;;;0.60;0.60;;;;;;;5.68;47.68;102465.94;674500;29;22222;-67
2022/03/10 01:28:42;;;;;;;0.60;0.60;;;;;;;5.67;47.80;102468.72;674307;29;23388;-67
2022/03/10 01:29:04;;;;;;;0.60;0.60;;;;;;;5.67;47.86;102466.88;674194;29;45211;-67
2022/03/10 01:29:25;;;;;;;0.50;0.50;;;;;;;5.66;47.77;102478.59;673993;29;47620;-67
2022/03/10 01:29:47;;;;;;;0.50;0.50;;;;;;;5.65;47.91;102473.31;672814;29;46388;-66
2022/03/10 01:30:10;;;;;;;0.53;0.53;;;;;;;5.65;47.91;102476.00;673855;29;44372;-66
2022/03/10 01:30:32;;;;;;;0.70;0.70;;;;;;;5.65;47.93;102479.53;672099;29;92301;-67
2022/03/10 01:30:53;;;;;;;0.60;0.60;;;;;;;5.63;47.97;102473.44;673282;29;45414;-67
2022/03/10 01:31:16;;;;;;;0.60;0.60;;;;;;;5.65;48.02;102476.84;674156;29;23455;-67
2022/03/10 01:31:37;;;;;;;0.50;0.50;;;;;;;5.64;47.94;102480.47;673163;29;44389;-67
2022/03/10 01:31:59;;;;;;;0.50;0.50;;;;;;;5.66;47.82;102477.69;675227;29;22257;-67
2022/03/10 01:32:20;;;;;;;0.50;0.50;;;;;;;5.66;47.92;102481.25;674812;29;19029;-67
2022/03/10 01:32:41;;;;;;;0.60;0.60;;;;;;;5.66;47.82;102475.03;675322;29;20836;-67
2022/03/10 01:33:02;;;;;;;0.60;0.60;;;;;;;5.64;47.88;102479.63;673884;29;46410;-67
2022/03/10 01:33:24;;;;;;;0.50;0.50;;;;;;;5.62;47.79;102477.06;674805;29;22383;-67
2022/03/10 01:33:45;;;;;;;0.50;0.50;;;;;;;5.62;47.99;102477.06;674021;29;46615;-67
2022/03/10 01:34:07;;;;;;;0.50;0.50;;;;;;;5.61;47.92;102472.66;674277;29;44360;-67
2022/03/10 01:34:28;;;;;;;0.70;0.70;;;;;;;5.61;47.96;102475.31;674918;29;22206;-67
2022/03/10 01:34:50;;;;;;;0.60;0.60;;;;;;;5.62;47.94;102476.22;674903;29;24320;-67
2022/03/10 01:35:12;;;;;;;0.60;0.60;;;;;;;5.62;48.00;102477.06;673820;29;45294;-66
2022/03/10 01:35:34;;;;;;;0.50;0.50;;;;;;;5.63;47.96;102481.47;673545;29;47988;-67
2022/03/10 01:35:55;;;;;;;0.50;0.50;;;;;;;5.62;47.94;102479.72;675146;29;22408;-67
2022/03/10 01:36:17;;;;;;;0.50;0.50;;;;;;;5.63;47.90;102483.25;674875;29;22447;-67
2022/03/10 01:36:39;;;;;;;0.65;0.65;;;;;;;5.62;47.97;102479.72;673231;29;46869;-67
2022/03/10 01:37:01;;;;;;;0.60;0.60;;;;;;;5.63;47.97;102478.78;673042;29;1323;-67
2022/03/10 01:37:22;;;;;;;0.60;0.60;;;;;;;5.63;47.97;102481.47;672419;29;22234;-66
2022/03/10 01:37:43;;;;;;;0.60;0.60;;;;;;;5.65;47.92;102481.38;672308;29;22433;-67
2022/03/10 01:38:04;;;;;;;0.50;0.50;;;;;;;5.65;47.94;102478.69;671608;29;46322;-67
2022/03/10 01:38:26;;;;;;;0.50;0.50;;;;;;;5.67;47.83;102482.13;672530;29;22412;-67
2022/03/10 01:38:47;;;;;;;0.60;0.60;;;;;;;5.67;47.88;102485.63;672061;29;46397;-67
2022/03/10 01:39:09;;;;;;;0.60;0.60;;;;;;;5.68;47.88;102479.31;674672;29;21513;-67
2022/03/10 01:39:32;;;;;;;0.60;0.60;;;;;;;5.69;47.86;102480.19;671982;29;24798;-67
2022/03/10 01:39:53;;;;;;;0.50;0.50;;;;;;;5.69;47.90;102480.19;670824;29;69175;-67
2022/03/10 01:40:17;;;;;;;0.50;0.50;;;;;;;5.70;47.89;102479.22;672633;29;23485;-67
2022/03/10 01:40:38;;;;;;;0.50;0.50;;;;;;;5.69;47.74;102483.75;669217;29;115436;-67
2022/03/10 01:40:59;;;;;;;0.60;0.60;;;;;;;5.69;47.78;102481.06;671198;29;45265;-67
2022/03/10 01:41:20;;;;;;;0.60;0.60;;;;;;;5.68;47.76;102482.00;663328;29;23496;-67
2022/03/10 01:41:43;;;;;;;0.60;0.60;;;;;;;5.68;47.75;102486.53;661989;29;21622;-67
2022/03/10 01:42:06;;;;;;;0.50;0.50;;;;;;;5.61;47.74;102483.38;673769;29;45927;-67
2022/03/10 01:42:28;;;;;;;0.50;0.50;;;;;;;5.58;47.92;102480.91;671626;29;93069;-67
2022/03/10 01:42:49;;;;;;;0.50;0.50;;;;;;;5.56;47.90;102480.13;674865;29;23768;-67
2022/03/10 01:43:11;;;;;;;0.65;0.65;;;;;;;5.54;48.10;102477.56;674807;29;22419;-67
2022/03/10 01:43:32;;;;;;;0.63;0.63;;;;;;;5.52;48.00;102474.13;674204;29;45273;-67